Moutfort, Luxembourg
Current Conditions -  °F | °C
As of 4:20 AM on Saturday 25 Oct 2014 (Local Time) from ELLX Reporting Station
NA  
Wind Chill: 48°   Ceiling: NA
Heat Index: 48°   Visibility: 6mi
Dew Point: 45°   Wind: 2mph
Humidity: 87%   Direction: NA
Pressure: 30.06"   Gusts: NA
Location:  49.59°N, 6.26°E
Report Text: ELLX 250220Z AUTO VRB02KT 9999 NDV 09/07 Q1018
Loading
Personal Weather Stations






























Interactive Weather Map
Tropical Storm Tracking
New forecast layout! Learn more

10-Day Weather Forecast

Advertisements
Track Severe Weather on mobile